Time;durP1;ratioP1;P1;durP2;ratioP2;P2;SDS_P1;SDS_P2;PMS_P1;PMS_P2;Temp;Humidity;BMP_temperature;BMP_pressure;BME280_temperature;BME280_humidity;BME280_pressure;Samples;Min_cycle;Max_cycle;Signal;HPM_P1;HPM_P2
2022/05/13 00:01:46;;;;;;;0.22;0.22;;;;;;;15.94;74.22;100913.38;5029915;28;20049;-68
2022/05/13 00:04:11;;;;;;;0.43;0.40;;;;;;;15.97;73.62;100899.78;5027550;28;20033;-70
2022/05/13 00:06:37;;;;;;;0.40;0.40;;;;;;;15.96;73.87;100906.41;5030310;28;20107;-67
2022/05/13 00:09:03;;;;;;;0.70;0.47;;;;;;;15.93;74.00;100901.72;5036785;28;20036;-67
2022/05/13 00:11:29;;;;;;;2.35;0.60;;;;;;;15.93;73.75;100896.28;5045358;28;20892;-67
2022/05/13 00:13:55;;;;;;;2.22;0.50;;;;;;;15.97;73.55;100899.00;5030286;28;20061;-68
2022/05/13 00:16:21;;;;;;;0.60;0.45;;;;;;;15.96;73.16;100895.53;5027916;28;20041;-69
2022/05/13 00:18:46;;;;;;;2.05;0.40;;;;;;;15.89;73.20;100903.63;5028995;28;20034;-68
2022/05/13 00:21:11;;;;;;;0.55;0.50;;;;;;;15.86;73.60;100900.91;5028823;28;20041;-67
2022/05/13 00:23:37;;;;;;;0.85;0.43;;;;;;;15.88;73.53;100893.94;5029447;28;20480;-68
2022/05/13 00:26:03;;;;;;;0.30;0.30;;;;;;;15.86;73.81;100904.41;5029471;28;20041;-68
2022/05/13 00:28:29;;;;;;;1.10;0.57;;;;;;;15.87;73.86;100891.63;5029066;28;20128;-69
2022/05/13 00:30:54;;;;;;;0.60;0.60;;;;;;;15.83;73.65;100897.03;5027373;28;20121;-67
2022/05/13 00:33:21;;;;;;;0.50;0.50;;;;;;;15.86;73.10;100884.63;5031119;28;20037;-70
2022/05/13 00:35:47;;;;;;;0.95;0.50;;;;;;;15.73;73.75;100892.38;5033303;28;20076;-69
2022/05/13 00:38:13;;;;;;;0.52;0.52;;;;;;;15.66;74.25;100892.31;5028647;28;20040;-70
2022/05/13 00:40:41;;;;;;;0.32;0.32;;;;;;;15.70;74.14;100884.97;5029014;28;20037;-69
2022/05/13 00:43:08;;;;;;;1.85;0.50;;;;;;;15.70;74.14;100882.25;5029064;28;20049;-68
2022/05/13 00:45:35;;;;;;;3.00;0.47;;;;;;;15.66;74.58;100880.72;5049079;28;20086;-67
2022/05/13 00:48:01;;;;;;;0.73;0.55;;;;;;;15.64;74.49;100885.75;5034553;28;20047;-68
2022/05/13 00:50:30;;;;;;;1.17;0.47;;;;;;;15.63;74.68;100876.03;5029405;28;20033;-68
2022/05/13 00:52:56;;;;;;;0.80;0.40;;;;;;;15.62;74.70;100880.66;5029621;28;20467;-68
2022/05/13 00:55:28;;;;;;;0.50;0.47;;;;;;;15.59;74.76;100870.59;5037447;28;20064;-68
2022/05/13 00:57:55;;;;;;;2.42;0.60;;;;;;;15.62;74.51;100874.47;5044692;28;20041;-68
2022/05/13 01:00:21;;;;;;;0.60;0.50;;;;;;;15.60;74.74;100872.13;5027350;28;20105;-68
2022/05/13 01:02:46;;;;;;;0.45;0.40;;;;;;;15.59;75.19;100872.50;5028007;28;20248;-67
2022/05/13 01:05:14;;;;;;;2.03;0.30;;;;;;;15.51;75.11;100863.56;5024907;28;20334;-69
2022/05/13 01:07:40;;;;;;;3.58;1.20;;;;;;;15.42;75.33;100860.44;5035482;28;20399;-68
2022/05/13 01:10:11;;;;;;;0.90;0.43;;;;;;;15.38;75.84;100868.56;5029083;28;20044;-68
2022/05/13 01:12:42;;;;;;;0.22;0.22;;;;;;;15.42;75.79;100875.94;5045273;28;20029;-67
2022/05/13 01:15:11;;;;;;;0.60;0.40;;;;;;;15.40;75.64;100873.59;5028894;28;20041;-68
2022/05/13 01:20:31;;;;;;;0.77;0.47;;;;;;;15.36;75.81;100870.06;5042259;28;20064;-68
2022/05/13 01:23:03;;;;;;;0.40;0.40;;;;;;;15.34;75.72;100864.25;5025574;28;20037;-68
2022/05/13 01:25:33;;;;;;;0.57;0.40;;;;;;;15.31;76.02;100865.03;5031647;28;20037;-68
2022/05/13 01:28:08;;;;;;;0.57;0.50;;;;;;;15.28;76.13;100861.13;5027615;28;20037;-67
2022/05/13 01:30:33;;;;;;;4.57;0.65;;;;;;;15.20;76.82;100864.97;5028537;28;20033;-68
2022/05/13 01:32:59;;;;;;;0.85;0.47;;;;;;;15.21;76.55;100865.75;5026906;28;20033;-67
2022/05/13 01:35:24;;;;;;;1.92;0.55;;;;;;;15.16;76.68;100856.03;5028679;28;20037;-66
2022/05/13 01:37:50;;;;;;;0.40;0.40;;;;;;;15.17;76.88;100851.38;5025318;28;20479;-68
2022/05/13 01:40:16;;;;;;;0.25;0.20;;;;;;;15.14;76.82;100852.91;5034993;28;20036;-67
2022/05/13 01:42:42;;;;;;;0.63;0.30;;;;;;;15.16;76.47;100857.97;5044563;28;20476;-68
2022/05/13 01:45:09;;;;;;;1.25;0.43;;;;;;;15.14;77.08;100852.13;5028994;28;20037;-68
2022/05/13 01:47:35;;;;;;;0.30;0.30;;;;;;;15.14;76.69;100852.13;5029380;28;20047;-67
2022/05/13 01:50:01;;;;;;;4.68;0.60;;;;;;;15.17;76.85;100854.09;5035194;28;20029;-68
2022/05/13 01:52:26;;;;;;;0.85;0.57;;;;;;;15.10;77.04;100856.75;5028126;28;20037;-68
2022/05/13 01:54:52;;;;;;;0.25;0.25;;;;;;;15.03;77.44;100840.47;5028393;28;20094;-68
2022/05/13 01:57:17;;;;;;;0.75;0.45;;;;;;;15.01;77.58;100850.91;5027243;28;20037;-68
2022/05/13 01:59:43;;;;;;;0.70;0.60;;;;;;;15.07;77.36;100847.47;5028821;28;20477;-68
2022/05/13 02:02:08;;;;;;;0.40;0.38;;;;;;;15.05;77.35;100851.72;5027285;28;20107;-67
2022/05/13 02:04:34;;;;;;;1.75;0.45;;;;;;;14.98;77.92;100843.53;5029780;28;20123;-67
2022/05/13 02:07:00;;;;;;;1.23;0.95;;;;;;;14.98;78.21;100848.97;5026096;28;20076;-67
2022/05/13 02:09:25;;;;;;;4.40;0.73;;;;;;;15.01;78.01;100845.47;5037407;28;20459;-68
2022/05/13 02:11:51;;;;;;;0.50;0.50;;;;;;;14.99;78.18;100836.94;5034904;28;20034;-67
2022/05/13 02:14:18;;;;;;;0.60;0.38;;;;;;;14.97;78.60;100839.25;5031250;28;20515;-67
2022/05/13 02:16:44;;;;;;;0.55;0.38;;;;;;;14.96;78.91;100835.75;5026152;28;20288;-67
2022/05/13 02:19:10;;;;;;;0.63;0.52;;;;;;;14.94;78.47;100837.31;5027673;28;20059;-67
2022/05/13 02:21:37;;;;;;;0.50;0.50;;;;;;;14.91;78.57;100846.97;5027749;28;20041;-67
2022/05/13 02:24:04;;;;;;;0.40;0.40;;;;;;;14.90;78.78;100837.31;5030443;28;20034;-67
2022/05/13 02:26:29;;;;;;;2.17;0.40;;;;;;;14.90;78.98;100836.53;5038354;28;20034;-67
2022/05/13 02:28:54;;;;;;;0.77;0.73;;;;;;;14.90;78.99;100836.53;5045562;28;20492;-67
2022/05/13 02:31:20;;;;;;;0.75;0.50;;;;;;;14.81;79.46;100828.72;5037148;28;20040;-67
2022/05/13 02:33:46;;;;;;;1.15;0.95;;;;;;;14.79;79.68;100824.84;5030631;28;20043;-67
2022/05/13 02:36:13;;;;;;;0.38;0.38;;;;;;;14.84;79.27;100832.59;5038678;28;20029;-67
2022/05/13 02:38:39;;;;;;;1.50;0.30;;;;;;;14.78;79.62;100834.13;5037302;28;20029;-68
2022/05/13 02:41:14;;;;;;;0.40;0.40;;;;;;;14.73;79.60;100823.63;5029864;28;20139;-67
2022/05/13 02:43:39;;;;;;;0.70;0.40;;;;;;;14.65;80.48;100827.47;5029181;28;20083;-66
2022/05/13 02:46:05;;;;;;;0.57;0.57;;;;;;;14.68;79.86;100829.41;5039551;28;20120;-66
2022/05/13 02:48:31;;;;;;;0.52;0.20;;;;;;;14.65;79.68;100817.41;5031383;28;20036;-67
2022/05/13 02:50:56;;;;;;;1.80;0.68;;;;;;;14.57;80.19;100820.44;5037462;28;20032;-66
2022/05/13 02:53:23;;;;;;;0.47;0.47;;;;;;;14.51;80.28;100814.59;5050376;28;20395;-67
2022/05/13 02:55:49;;;;;;;0.35;0.35;;;;;;;14.51;80.29;100816.50;5036030;28;20044;-67
2022/05/13 02:58:14;;;;;;;0.40;0.40;;;;;;;14.48;80.08;100806.44;5042395;28;20041;-66
2022/05/13 03:00:40;;;;;;;0.30;0.30;;;;;;;14.44;80.36;100801.75;5049477;28;20045;-67
2022/05/13 03:03:06;;;;;;;0.40;0.40;;;;;;;14.42;80.41;100795.16;5050340;28;20426;-67
2022/05/13 03:05:33;;;;;;;0.65;0.57;;;;;;;14.40;80.59;100803.66;5029414;28;20036;-67
2022/05/13 03:08:01;;;;;;;0.22;0.22;;;;;;;14.41;80.72;100802.53;5030413;28;20037;-67
2022/05/13 03:10:32;;;;;;;0.80;0.77;;;;;;;14.34;81.24;100794.31;5031213;28;20040;-67
2022/05/13 03:12:58;;;;;;;0.30;0.30;;;;;;;14.33;80.90;100794.69;5039779;28;20029;-66
2022/05/13 03:15:25;;;;;;;0.75;0.57;;;;;;;14.26;81.20;100797.34;5034132;28;20033;-66
2022/05/13 03:17:50;;;;;;;0.80;0.60;;;;;;;14.22;81.46;100797.31;5026886;28;20076;-66
2022/05/13 03:20:18;;;;;;;0.57;0.57;;;;;;;14.16;81.72;100789.91;5032049;28;20064;-67
2022/05/13 03:22:48;;;;;;;0.90;0.50;;;;;;;14.21;81.67;100798.47;5030951;28;20029;-67
2022/05/13 03:25:15;;;;;;;0.68;0.60;;;;;;;14.19;81.41;100799.97;5030779;28;20127;-67
2022/05/13 03:27:41;;;;;;;0.32;0.32;;;;;;;14.12;81.96;100789.09;5033370;28;20056;-67
2022/05/13 03:30:10;;;;;;;0.28;0.28;;;;;;;14.07;82.66;100789.47;5046364;28;20053;-67
2022/05/13 03:32:35;;;;;;;0.40;0.38;;;;;;;14.02;82.64;100785.16;5036347;28;20072;-67
2022/05/13 03:35:04;;;;;;;0.82;0.75;;;;;;;14.01;82.51;100783.59;5038014;28;20055;-68
2022/05/13 03:37:29;;;;;;;0.30;0.30;;;;;;;13.99;82.69;100785.91;5039683;28;20068;-67
2022/05/13 03:39:55;;;;;;;0.38;0.38;;;;;;;14.01;82.53;100778.19;5034001;28;20076;-66
2022/05/13 03:42:22;;;;;;;2.22;0.70;;;;;;;14.06;82.71;100775.13;5031949;28;20040;-66
2022/05/13 03:44:49;;;;;;;0.57;0.57;;;;;;;14.05;83.13;100773.56;5032414;28;20029;-67
2022/05/13 03:47:14;;;;;;;0.65;0.57;;;;;;;14.08;83.00;100774.75;5028944;28;20121;-68
2022/05/13 03:49:39;;;;;;;4.50;0.80;;;;;;;14.07;83.05;100775.91;5030912;28;20112;-67
2022/05/13 03:52:05;;;;;;;0.60;0.60;;;;;;;14.10;83.34;100785.97;5029121;28;20560;-68
2022/05/13 03:54:31;;;;;;;0.65;0.40;;;;;;;14.14;83.50;100774.03;5028726;28;20083;-67
2022/05/13 03:56:56;;;;;;;1.10;0.60;;;;;;;14.16;82.95;100774.44;5042813;28;20513;-68
2022/05/13 03:59:21;;;;;;;0.60;0.57;;;;;;;14.14;83.82;100770.53;5035789;28;20248;-66
2022/05/13 04:01:47;;;;;;;1.63;0.70;;;;;;;14.20;83.18;100769.03;5041383;28;20044;-67
2022/05/13 04:04:13;;;;;;;0.50;0.50;;;;;;;14.21;83.35;100765.94;5037899;28;20037;-67
2022/05/13 04:09:22;;;;;;;2.95;0.68;;;;;;;14.26;82.85;100754.78;5034274;28;20104;-67
2022/05/13 04:17:15;;;;;;;0.75;0.55;;;;;;;14.34;82.44;100755.63;5033985;28;20029;-67
2022/05/13 04:19:41;;;;;;;1.00;0.70;;;;;;;14.34;82.98;100747.50;5029496;28;20116;-66
2022/05/13 04:22:06;;;;;;;1.00;0.80;;;;;;;14.43;82.46;100746.00;5031703;28;20144;-66
2022/05/13 04:24:32;;;;;;;0.77;0.52;;;;;;;14.46;82.07;100747.97;5045015;28;20033;-67
2022/05/13 04:26:57;;;;;;;0.82;0.50;;;;;;;14.48;82.38;100754.94;5032637;28;20468;-66
2022/05/13 04:29:22;;;;;;;2.25;0.65;;;;;;;14.54;81.87;100748.78;5028489;28;20380;-66
2022/05/13 04:31:48;;;;;;;1.20;0.60;;;;;;;14.55;81.64;100757.69;5033331;28;20076;-66
2022/05/13 04:34:14;;;;;;;0.80;0.77;;;;;;;14.57;81.95;100758.88;5035692;28;20343;-66
2022/05/13 04:36:40;;;;;;;1.55;0.70;;;;;;;14.54;81.66;100742.59;5026744;28;20037;-67
2022/05/13 04:39:05;;;;;;;4.18;0.65;;;;;;;14.61;80.51;100748.81;5031372;28;20083;-65
2022/05/13 04:44:17;;;;;;;0.82;0.70;;;;;;;14.58;81.24;100752.28;5029098;28;20029;-66
2022/05/13 04:46:43;;;;;;;1.50;0.95;;;;;;;14.68;81.42;100759.69;5037582;28;20111;-65
2022/05/13 04:49:09;;;;;;;0.77;0.60;;;;;;;14.78;80.89;100755.47;5013889;28;20040;-66
2022/05/13 04:51:35;;;;;;;0.50;0.50;;;;;;;14.78;80.43;100752.78;5027519;28;20503;-65
2022/05/13 04:54:02;;;;;;;1.05;0.80;;;;;;;14.78;80.37;100747.34;5028681;28;20025;-66
2022/05/13 04:56:30;;;;;;;4.00;0.55;;;;;;;14.77;80.69;100751.25;5029735;28;20033;-67
2022/05/13 04:58:56;;;;;;;0.45;0.40;;;;;;;14.75;80.84;100751.59;5034943;28;20120;-66
2022/05/13 05:01:22;;;;;;;1.23;0.60;;;;;;;14.78;80.97;100769.03;5039614;28;20041;-66
2022/05/13 05:03:48;;;;;;;4.50;0.80;;;;;;;14.76;81.21;100765.94;5034380;28;20036;-67
2022/05/13 05:06:15;;;;;;;1.42;0.70;;;;;;;14.81;81.17;100765.56;5013723;28;20060;-66
2022/05/13 05:08:42;;;;;;;0.85;0.70;;;;;;;14.82;80.88;100773.34;5035890;28;20212;-66
2022/05/13 05:11:08;;;;;;;4.07;0.95;;;;;;;14.88;80.19;100784.59;5020308;28;20033;-67
2022/05/13 05:13:36;;;;;;;0.73;0.73;;;;;;;14.81;80.72;100779.91;5029965;28;20043;-66
2022/05/13 05:16:03;;;;;;;1.30;0.80;;;;;;;14.83;80.39;100790.38;5033044;28;20087;-65
2022/05/13 05:18:28;;;;;;;1.52;0.60;;;;;;;14.81;81.23;100787.25;5029459;28;20029;-65
2022/05/13 05:20:54;;;;;;;0.98;0.52;;;;;;;14.82;80.85;100794.25;5031741;28;20020;-66
2022/05/13 05:23:23;;;;;;;0.85;0.77;;;;;;;14.80;80.94;100789.22;5039343;28;20029;-66
2022/05/13 05:25:49;;;;;;;3.55;1.65;;;;;;;14.74;81.47;100790.72;5027813;28;20079;-65
2022/05/13 05:28:15;;;;;;;0.70;0.47;;;;;;;14.83;81.28;100796.56;5012941;28;20037;-66
2022/05/13 05:30:42;;;;;;;1.17;0.70;;;;;;;14.83;81.53;100802.00;5016274;28;20041;-67
2022/05/13 05:33:08;;;;;;;1.55;0.80;;;;;;;14.87;81.88;100802.00;5028341;28;20106;-65
2022/05/13 05:35:34;;;;;;;0.40;0.40;;;;;;;14.87;81.35;100808.22;5016685;28;20029;-66
2022/05/13 05:38:00;;;;;;;1.40;0.90;;;;;;;14.89;81.21;100805.91;5031112;28;20083;-67
2022/05/13 05:40:26;;;;;;;0.77;0.68;;;;;;;14.91;81.63;100805.50;5031731;28;20091;-66
2022/05/13 05:42:51;;;;;;;0.95;0.75;;;;;;;14.92;81.41;100802.44;5031745;28;20033;-66
2022/05/13 05:45:19;;;;;;;1.05;0.88;;;;;;;14.93;81.18;100806.69;5029075;28;20029;-67
2022/05/13 05:47:45;;;;;;;0.68;0.55;;;;;;;14.93;80.92;100800.50;5034647;28;20657;-67
2022/05/13 05:50:14;;;;;;;0.73;0.47;;;;;;;14.91;80.87;100808.22;5030674;28;20027;-66
2022/05/13 05:52:40;;;;;;;1.85;1.10;;;;;;;14.90;81.03;100801.25;5023408;28;20043;-67
2022/05/13 05:58:04;;;;;;;0.38;0.38;;;;;;;14.91;81.04;100805.50;5037630;28;20041;-67
2022/05/13 06:00:32;;;;;;;1.05;0.80;;;;;;;14.94;80.43;100802.06;5036349;28;20032;-67
2022/05/13 06:02:58;;;;;;;0.65;0.47;;;;;;;15.03;79.46;100799.78;5029190;28;22017;-68
2022/05/13 06:05:23;;;;;;;0.70;0.68;;;;;;;15.05;79.42;100803.66;5034972;28;20033;-67
2022/05/13 06:07:50;;;;;;;0.30;0.30;;;;;;;15.03;79.70;100803.28;5033518;28;20037;-68
2022/05/13 06:10:16;;;;;;;1.48;0.65;;;;;;;15.13;80.13;100805.25;5028798;28;20116;-67
2022/05/13 06:12:42;;;;;;;0.77;0.60;;;;;;;15.20;79.04;100804.50;5034913;28;20036;-66
2022/05/13 06:15:08;;;;;;;1.10;1.00;;;;;;;15.16;79.03;100811.84;5036691;28;20029;-67
2022/05/13 06:17:41;;;;;;;2.30;0.68;;;;;;;15.20;78.88;100802.56;5040932;28;20028;-67
2022/05/13 06:20:07;;;;;;;1.42;0.77;;;;;;;15.19;78.28;100801.00;5043112;28;20032;-67
2022/05/13 06:22:33;;;;;;;0.95;0.80;;;;;;;15.21;78.07;100806.06;5041149;28;20395;-67
2022/05/13 06:24:58;;;;;;;1.65;0.60;;;;;;;15.14;78.36;100795.16;5044657;28;20047;-68
2022/05/13 06:27:24;;;;;;;0.70;0.60;;;;;;;15.10;78.79;100797.88;5045413;28;20037;-67
2022/05/13 06:29:51;;;;;;;1.25;0.70;;;;;;;15.08;78.74;100791.25;5037216;28;20025;-68
2022/05/13 06:32:17;;;;;;;0.70;0.60;;;;;;;15.05;78.66;100787.38;5034357;28;20041;-68
2022/05/13 06:34:42;;;;;;;1.98;0.85;;;;;;;15.14;78.32;100787.03;5035889;28;20055;-68
2022/05/13 06:37:08;;;;;;;0.60;0.60;;;;;;;15.13;78.47;100778.13;5034719;28;20385;-67
2022/05/13 06:39:33;;;;;;;1.30;0.70;;;;;;;15.09;79.29;100781.97;5036745;28;20408;-67
2022/05/13 06:41:59;;;;;;;0.70;0.47;;;;;;;15.04;79.57;100785.81;5036964;28;20041;-68
2022/05/13 06:44:24;;;;;;;0.75;0.50;;;;;;;15.07;79.72;100779.66;5038060;28;20075;-67
2022/05/13 06:46:49;;;;;;;2.17;0.50;;;;;;;15.08;80.35;100785.84;5031008;28;20495;-67
2022/05/13 06:49:15;;;;;;;1.92;0.82;;;;;;;15.08;80.47;100786.63;5034079;28;20542;-67
2022/05/13 06:51:41;;;;;;;7.20;1.10;;;;;;;15.14;80.29;100790.53;5031189;28;20045;-66
2022/05/13 06:54:11;;;;;;;1.83;0.90;;;;;;;15.08;81.25;100788.53;5040016;28;20033;-67
2022/05/13 06:56:39;;;;;;;2.50;0.55;;;;;;;15.08;81.60;100792.03;5033341;28;20052;-67
2022/05/13 06:59:05;;;;;;;1.77;0.82;;;;;;;15.04;82.76;100785.06;5033703;28;20112;-66
2022/05/13 07:01:31;;;;;;;0.50;0.50;;;;;;;14.90;84.11;100785.78;5037185;28;20051;-67
2022/05/13 07:03:57;;;;;;;0.85;0.80;;;;;;;14.96;84.01;100780.75;5035361;28;20040;-67
2022/05/13 07:06:22;;;;;;;1.08;0.73;;;;;;;14.94;84.88;100791.97;5039626;28;20353;-68
2022/05/13 07:08:50;;;;;;;0.85;0.80;;;;;;;14.95;85.40;100803.59;5025556;28;20072;-67
2022/05/13 07:11:17;;;;;;;0.90;0.65;;;;;;;14.96;86.18;100784.22;5037807;28;20037;-67
2022/05/13 07:13:43;;;;;;;2.35;0.93;;;;;;;14.99;86.71;100793.56;5032850;28;20132;-66
2022/05/13 07:16:08;;;;;;;2.58;0.93;;;;;;;15.06;86.84;100790.88;5036252;28;20100;-66
2022/05/13 07:18:55;;;;;;;0.98;0.70;;;;;;;15.08;86.93;100786.63;5039283;28;20039;-66
2022/05/13 07:21:20;;;;;;;4.70;0.77;;;;;;;15.10;86.48;100789.72;5056980;28;20048;-66
2022/05/13 07:23:45;;;;;;;0.82;0.63;;;;;;;15.10;86.87;100781.59;5055156;28;20064;-67
2022/05/13 07:26:11;;;;;;;3.53;0.93;;;;;;;15.16;86.24;100792.84;5051720;28;20482;-66
2022/05/13 07:28:38;;;;;;;0.98;0.70;;;;;;;15.13;86.34;100793.63;5046180;28;20435;-68
2022/05/13 07:31:05;;;;;;;2.55;0.90;;;;;;;15.19;85.32;100786.66;5064362;28;20056;-67
2022/05/13 07:33:31;;;;;;;4.43;0.88;;;;;;;15.15;86.05;100794.00;5054393;28;20049;-67
2022/05/13 07:35:57;;;;;;;2.13;0.77;;;;;;;15.20;85.98;100807.19;5057474;28;20133;-67
2022/05/13 07:38:23;;;;;;;3.28;1.20;;;;;;;15.25;85.29;100804.88;5061573;28;20392;-67
2022/05/13 07:43:32;;;;;;;3.35;0.73;;;;;;;15.33;85.07;100805.69;5045601;28;20060;-67
2022/05/13 07:45:58;;;;;;;0.95;0.75;;;;;;;15.39;84.22;100802.22;5054892;28;20123;-66
2022/05/13 07:48:24;;;;;;;3.10;0.70;;;;;;;15.48;83.61;100809.28;5055076;28;20252;-68
2022/05/13 07:50:50;;;;;;;1.88;1.27;;;;;;;15.51;83.94;100812.00;5057176;28;20032;-67
2022/05/13 07:53:15;;;;;;;8.48;1.23;;;;;;;15.62;83.13;100804.63;5060176;28;20127;-68
2022/05/13 07:55:41;;;;;;;1.67;1.30;;;;;;;15.66;83.38;100816.28;5049477;28;20036;-67
2022/05/13 07:58:06;;;;;;;3.80;1.23;;;;;;;15.76;82.30;100818.25;5052674;28;20041;-67
2022/05/13 08:00:36;;;;;;;1.05;0.88;;;;;;;15.83;81.80;100818.25;5036150;28;20215;-66
2022/05/13 08:03:08;;;;;;;1.10;0.70;;;;;;;15.83;81.02;100829.13;5040131;28;20033;-67
2022/05/13 08:05:45;;;;;;;1.23;0.88;;;;;;;15.79;81.24;100825.66;5036374;28;20071;-67
2022/05/13 08:08:17;;;;;;;4.60;0.82;;;;;;;15.84;81.53;100819.81;5039109;28;20179;-67
2022/05/13 08:10:50;;;;;;;1.10;0.70;;;;;;;15.79;81.06;100817.50;5038450;28;20028;-66
2022/05/13 08:13:16;;;;;;;0.75;0.70;;;;;;;15.81;81.44;100815.19;5032166;28;20033;-66
2022/05/13 08:15:42;;;;;;;2.22;1.30;;;;;;;15.91;81.42;100825.25;5038760;28;20086;-67
2022/05/13 08:18:08;;;;;;;2.55;0.73;;;;;;;15.97;81.48;100815.56;5028452;28;20123;-66
2022/05/13 08:20:33;;;;;;;1.55;0.70;;;;;;;16.06;80.76;100821.41;5028040;28;20149;-66
2022/05/13 08:22:59;;;;;;;1.40;1.05;;;;;;;16.07;79.81;100824.88;5040451;28;20045;-67
2022/05/13 08:25:26;;;;;;;0.73;0.73;;;;;;;16.12;79.58;100832.66;5038602;28;20086;-67
2022/05/13 08:27:52;;;;;;;0.77;0.77;;;;;;;16.12;79.54;100825.28;5026735;28;20105;-67
2022/05/13 08:30:18;;;;;;;1.65;0.88;;;;;;;16.20;79.19;100835.00;5041811;28;20040;-68
2022/05/13 08:32:43;;;;;;;1.30;0.73;;;;;;;16.24;78.42;100830.34;5036970;28;20221;-68
2022/05/13 08:35:10;;;;;;;2.10;0.90;;;;;;;16.26;78.46;100838.88;5040645;28;20048;-68
2022/05/13 08:37:44;;;;;;;1.02;0.80;;;;;;;16.33;78.33;100837.31;5039839;28;20040;-67
2022/05/13 08:40:23;;;;;;;1.92;1.13;;;;;;;16.36;77.85;100836.53;5032609;28;20048;-67
2022/05/13 08:42:49;;;;;;;1.90;0.85;;;;;;;16.45;77.84;100840.44;5036955;28;20512;-68
2022/05/13 08:45:18;;;;;;;3.03;0.75;;;;;;;16.55;77.00;100844.34;5037869;28;20032;-68
2022/05/13 08:47:58;;;;;;;4.25;0.80;;;;;;;16.47;76.21;100840.84;5032345;28;20043;-67
2022/05/13 08:50:30;;;;;;;1.70;1.13;;;;;;;16.48;76.54;100845.13;5040628;28;20525;-68
2022/05/13 08:53:27;;;;;;;7.18;0.93;;;;;;;16.52;75.30;100856.00;5036610;28;20064;-67
2022/05/13 08:56:01;;;;;;;2.35;0.80;;;;;;;16.57;75.92;100853.66;5041399;28;20074;-67
2022/05/13 08:58:36;;;;;;;3.40;0.90;;;;;;;16.63;75.29;100851.31;5034690;28;20399;-67
2022/05/13 09:01:06;;;;;;;3.38;0.85;;;;;;;16.70;75.30;100846.66;5039356;28;20030;-67
2022/05/13 09:03:40;;;;;;;5.70;0.70;;;;;;;16.85;75.40;100844.69;5038747;28;20384;-67
2022/05/13 09:06:11;;;;;;;0.57;0.57;;;;;;;17.03;74.41;100850.88;5032954;28;20041;-68
2022/05/13 09:08:36;;;;;;;1.55;0.77;;;;;;;17.04;73.82;100855.13;5038965;28;20082;-67
2022/05/13 09:11:23;;;;;;;0.95;0.70;;;;;;;17.07;73.31;100852.38;5041868;28;20029;-67
2022/05/13 09:14:17;;;;;;;2.60;1.05;;;;;;;17.10;73.78;100859.78;5029242;28;20045;-67
2022/05/13 09:17:11;;;;;;;1.13;0.90;;;;;;;17.16;73.05;100851.97;5039633;28;20334;-67
2022/05/13 09:19:57;;;;;;;0.70;0.60;;;;;;;17.20;72.62;100850.03;5029798;28;20041;-67
2022/05/13 09:22:23;;;;;;;6.53;1.10;;;;;;;17.26;72.01;100853.13;5040104;28;20127;-68
2022/05/13 09:24:49;;;;;;;7.32;1.67;;;;;;;17.23;72.06;100857.38;5040362;28;20035;-67
2022/05/13 09:27:15;;;;;;;1.17;0.70;;;;;;;17.23;72.24;100864.81;5035639;28;20033;-67
2022/05/13 09:29:45;;;;;;;3.58;0.85;;;;;;;17.31;71.87;100872.53;5038517;28;20078;-68
2022/05/13 09:32:15;;;;;;;0.68;0.55;;;;;;;17.37;71.36;100864.72;5033083;28;20487;-67
2022/05/13 09:35:05;;;;;;;1.80;0.70;;;;;;;17.52;71.20;100869.75;5039361;28;20441;-68
2022/05/13 09:37:39;;;;;;;5.35;1.33;;;;;;;17.72;70.13;100851.75;5039996;28;20495;-67
2022/05/13 09:40:23;;;;;;;1.17;0.70;;;;;;;17.92;68.89;100849.31;5035885;28;20030;-67
2022/05/13 09:42:52;;;;;;;5.45;1.33;;;;;;;18.06;68.14;100853.88;5033649;28;20416;-67
2022/05/13 09:45:20;;;;;;;2.03;0.95;;;;;;;18.16;68.23;100851.06;5034795;28;20086;-67
2022/05/13 09:48:03;;;;;;;2.35;0.80;;;;;;;18.28;67.70;100849.81;5055413;28;20167;-68
2022/05/13 09:50:35;;;;;;;3.03;1.17;;;;;;;18.54;67.30;100858.19;5037824;28;20048;-66
2022/05/13 09:53:26;;;;;;;2.67;1.50;;;;;;;18.92;65.34;100861.72;5035988;28;20032;-67
2022/05/13 09:55:58;;;;;;;3.95;0.93;;;;;;;19.07;63.83;100863.13;5036770;28;20519;-68
2022/05/13 09:58:27;;;;;;;8.23;0.82;;;;;;;19.16;61.90;100865.38;5024010;28;20495;-67
2022/05/13 10:01:03;;;;;;;0.90;0.65;;;;;;;19.20;62.85;100866.09;5023347;28;20439;-66
2022/05/13 10:03:36;;;;;;;1.65;0.70;;;;;;;19.33;61.37;100859.75;5032029;28;20037;-67
2022/05/13 10:06:17;;;;;;;0.55;0.47;;;;;;;19.47;61.66;100864.25;5031465;28;20151;-68
2022/05/13 10:14:34;;;;;;;1.77;0.73;;;;;;;19.41;59.44;100874.09;5051779;28;21224;-65
2022/05/13 10:17:07;;;;;;;0.90;0.40;;;;;;;19.50;59.80;100866.16;5029844;28;20450;-66
2022/05/13 10:19:49;;;;;;;1.15;0.60;;;;;;;19.56;59.11;100861.78;5034139;28;20029;-66
2022/05/13 10:22:46;;;;;;;2.08;0.70;;;;;;;19.64;58.50;100858.56;5035237;28;20029;-66
2022/05/13 10:25:25;;;;;;;2.65;1.20;;;;;;;19.57;59.46;100858.63;5033687;28;20128;-66
2022/05/13 10:28:11;;;;;;;4.15;0.73;;;;;;;19.40;60.50;100851.44;5034154;28;20037;-66
2022/05/13 10:30:52;;;;;;;2.30;0.40;;;;;;;19.38;59.71;100856.53;5037079;28;20057;-67
2022/05/13 10:33:33;;;;;;;1.45;0.70;;;;;;;19.39;59.39;100849.13;5037939;28;20029;-67
2022/05/13 10:36:07;;;;;;;0.88;0.50;;;;;;;19.28;59.55;100851.94;5033557;28;20621;-68
2022/05/13 10:39:04;;;;;;;1.38;0.57;;;;;;;19.20;59.65;100861.41;5033083;28;20076;-66
2022/05/13 10:41:29;;;;;;;0.98;0.63;;;;;;;19.11;59.80;100863.06;5031696;28;20040;-67
2022/05/13 10:44:39;;;;;;;1.73;0.70;;;;;;;18.91;60.68;100868.38;5038959;28;20029;-66
2022/05/13 10:47:13;;;;;;;1.75;0.75;;;;;;;18.79;64.14;100894.19;5042587;28;20461;-66
2022/05/13 10:49:42;;;;;;;0.95;0.40;;;;;;;18.55;69.97;100925.22;5045971;28;20056;-67
2022/05/13 10:52:34;;;;;;;0.73;0.20;;;;;;;18.11;74.81;100943.41;5027078;28;20044;-68
2022/05/13 10:55:23;;;;;;;0.40;0.22;;;;;;;17.74;78.02;100930.38;5027544;28;20057;-68
2022/05/13 10:58:25;;;;;;;0.30;0.30;;;;;;;17.48;80.35;100920.72;5034472;28;20040;-68
2022/05/13 11:00:59;;;;;;;0.45;0.38;;;;;;;17.30;83.35;100913.78;5034838;28;20424;-67
2022/05/13 11:04:02;;;;;;;0.35;0.35;;;;;;;17.35;84.41;100908.69;5036819;28;20056;-67
2022/05/13 11:06:33;;;;;;;0.60;0.40;;;;;;;17.33;85.04;100902.09;5048758;28;20086;-67
2022/05/13 11:09:18;;;;;;;0.40;0.40;;;;;;;17.43;86.49;100912.16;5035493;28;20110;-67
2022/05/13 11:11:45;;;;;;;0.40;0.35;;;;;;;17.63;87.04;100908.63;5039363;28;20041;-67
2022/05/13 11:14:32;;;;;;;0.32;0.30;;;;;;;17.92;88.07;100912.75;5039258;28;20049;-67
2022/05/13 11:17:25;;;;;;;0.70;0.40;;;;;;;18.39;88.22;100908.56;5032712;28;20551;-67
2022/05/13 11:20:16;;;;;;;1.38;0.55;;;;;;;18.77;86.77;100909.44;5036338;28;20037;-67
2022/05/13 11:22:50;;;;;;;1.30;0.40;;;;;;;18.98;86.67;100908.47;5045987;28;20033;-66
2022/05/13 11:28:25;;;;;;;1.58;0.82;;;;;;;18.98;82.66;100908.47;5031467;28;20044;-67
2022/05/13 11:31:09;;;;;;;1.00;0.47;;;;;;;18.97;82.94;100898.75;5038116;28;20029;-67
2022/05/13 11:34:16;;;;;;;1.15;0.50;;;;;;;19.10;81.73;100895.09;5037459;28;20473;-67
2022/05/13 11:37:05;;;;;;;0.88;0.60;;;;;;;19.01;80.95;100897.50;5048215;28;20064;-67
2022/05/13 11:40:12;;;;;;;2.47;0.70;;;;;;;18.87;79.70;100911.31;5046261;28;20067;-67
2022/05/13 11:46:03;;;;;;;1.45;0.80;;;;;;;18.51;82.11;100904.59;5030056;28;20037;-68
2022/05/13 11:48:40;;;;;;;1.20;0.93;;;;;;;18.41;83.65;100910.88;5029739;28;20407;-67
2022/05/13 11:51:28;;;;;;;1.75;1.05;;;;;;;18.30;84.58;100902.78;5031459;28;20045;-67
2022/05/13 11:54:00;;;;;;;1.20;0.95;;;;;;;18.37;85.70;100901.97;5023978;28;20408;-67
2022/05/13 11:56:31;;;;;;;;;;;;;;;18.31;86.28;100911.75;5040255;28;20130;-67
2022/05/13 11:59:04;;;;;;;1.23;0.75;;;;;;;18.32;86.91;100911.34;5030592;28;19921;-67
2022/05/13 12:01:36;;;;;;;1.08;0.52;;;;;;;18.49;85.69;100899.53;5023177;28;20045;-67
2022/05/13 12:04:14;;;;;;;1.10;0.70;;;;;;;18.50;84.69;100911.25;5032937;28;20040;-67
2022/05/13 12:07:18;;;;;;;1.73;0.80;;;;;;;18.32;84.96;100963.16;5036678;28;20033;-67
2022/05/13 12:09:49;;;;;;;1.52;0.75;;;;;;;17.95;85.79;100960.25;5029963;28;20766;-66